createdAt,value
2023-03-06T00:04:45.648Z,75.93
2023-03-06T00:09:38.276Z,76.28
2023-03-06T00:14:30.923Z,75.87
2023-03-06T00:19:24.526Z,75.84
2023-03-06T00:24:17.433Z,75.81
2023-03-06T00:29:10.090Z,75.52
2023-03-06T00:34:03.938Z,75.42
2023-03-06T00:38:56.718Z,75.77
2023-03-06T00:43:51.518Z,75.93
2023-03-06T00:48:44.951Z,75.66
2023-03-06T00:53:38.377Z,75.62
2023-03-06T00:58:31.097Z,75.42
2023-03-06T01:03:23.729Z,75.44
2023-03-06T01:08:17.802Z,75.22
2023-03-06T01:13:10.807Z,75.04
2023-03-06T01:18:03.519Z,75.35
2023-03-06T01:22:56.777Z,75.32
2023-03-06T01:27:49.377Z,74.82
2023-03-06T01:32:42.164Z,75.13
2023-03-06T01:37:37.650Z,75.55
2023-03-06T01:42:32.069Z,75.49
2023-03-06T01:47:24.859Z,75.65
2023-03-06T01:52:23.087Z,75.77
2023-03-06T01:57:30.055Z,75.41
2023-03-06T02:02:23.621Z,75.40
2023-03-06T02:07:21.566Z,75.38
2023-03-06T02:12:18.839Z,75.25
2023-03-06T02:17:14.028Z,75.01
2023-03-06T02:22:07.275Z,75.05
2023-03-06T02:27:02.071Z,74.97
2023-03-06T02:31:54.817Z,74.41
2023-03-06T02:36:51.664Z,74.23
2023-03-06T02:41:44.490Z,74.67
2023-03-06T02:46:38.890Z,74.46
2023-03-06T02:51:31.560Z,74.61
2023-03-06T02:56:24.328Z,74.44
2023-03-06T03:01:17.227Z,74.38
2023-03-06T03:06:10.035Z,74.58
2023-03-06T03:11:03.880Z,74.61
2023-03-06T03:16:09.093Z,74.24
2023-03-06T03:21:01.862Z,74.12
2023-03-06T03:25:54.886Z,74.12
2023-03-06T03:30:48.192Z,74.02
2023-03-06T03:35:41.487Z,74.24
2023-03-06T03:40:34.344Z,74.18
2023-03-06T03:45:27.062Z,73.88
2023-03-06T03:50:20.574Z,74.02
2023-03-06T03:55:13.649Z,73.90
2023-03-06T04:00:08.151Z,73.86
2023-03-06T04:05:07.072Z,74.07
2023-03-06T04:10:00.161Z,74.11
2023-03-06T04:14:53.607Z,73.93
2023-03-06T04:19:46.373Z,74.08
2023-03-06T04:24:41.629Z,73.97
2023-03-06T04:29:34.736Z,73.89
2023-03-06T04:34:27.549Z,73.92
2023-03-06T04:39:20.298Z,73.93
2023-03-06T04:44:13.823Z,73.78
2023-03-06T04:49:06.538Z,73.92
2023-03-06T04:53:59.288Z,74.09
2023-03-06T04:58:51.979Z,74.11
2023-03-06T05:03:44.584Z,74.27
2023-03-06T05:08:37.374Z,74.40
2023-03-06T05:13:30.160Z,74.68
2023-03-06T05:18:23.112Z,74.85
2023-03-06T05:23:16.274Z,74.92
2023-03-06T05:28:09.252Z,74.95
2023-03-06T05:33:02.443Z,75.09
2023-03-06T05:37:55.093Z,74.91
2023-03-06T05:42:47.741Z,74.85
2023-03-06T05:47:40.425Z,74.95
2023-03-06T05:52:33.103Z,75.11
2023-03-06T05:57:27.664Z,74.98
2023-03-06T06:02:20.916Z,75.06
2023-03-06T06:07:15.655Z,75.11
2023-03-06T06:12:11.490Z,75.10
2023-03-06T06:17:04.249Z,75.21
2023-03-06T06:21:57.042Z,75.40
2023-03-06T06:26:58.000Z,75.55
2023-03-06T06:31:52.230Z,75.43
2023-03-06T06:36:45.632Z,75.49
2023-03-06T06:41:56.996Z,75.84
2023-03-06T06:52:03.554Z,76.26
2023-03-06T06:56:56.203Z,76.82
2023-03-06T07:01:48.892Z,76.09
2023-03-06T07:06:42.514Z,75.79
2023-03-06T07:11:35.755Z,75.67
2023-03-06T07:16:28.790Z,75.59
2023-03-06T07:21:24.511Z,75.66
2023-03-06T07:26:17.215Z,75.70
2023-03-06T07:31:11.632Z,76.14
2023-03-06T07:36:04.874Z,76.11
2023-03-06T07:40:57.526Z,76.08
2023-03-06T07:45:57.842Z,75.90
2023-03-06T07:51:02.963Z,75.50
2023-03-06T07:55:55.949Z,72.96
2023-03-06T08:00:48.867Z,70.86
2023-03-06T08:05:41.813Z,69.41
2023-03-06T08:10:34.569Z,67.01
2023-03-06T08:15:27.253Z,66.30
2023-03-06T08:20:19.976Z,66.55
2023-03-06T08:25:15.222Z,66.07
2023-03-06T08:30:09.649Z,64.92
2023-03-06T08:35:04.683Z,64.96
2023-03-06T08:39:57.440Z,65.73
2023-03-06T08:44:50.664Z,66.44
2023-03-06T08:49:43.332Z,66.61
2023-03-06T08:54:37.440Z,66.23
2023-03-06T08:59:30.212Z,66.13
2023-03-06T09:04:22.835Z,65.84
2023-03-06T09:09:15.822Z,65.02
2023-03-06T09:14:08.741Z,65.07
2023-03-06T09:19:01.756Z,64.89
2023-03-06T09:23:54.412Z,64.14
2023-03-06T09:28:47.844Z,64.72
2023-03-06T09:33:40.623Z,65.12
2023-03-06T09:38:33.480Z,65.20
2023-03-06T09:43:48.170Z,64.92
2023-03-06T09:49:10.548Z,64.71
2023-03-06T09:54:14.554Z,65.20
2023-03-06T09:59:20.427Z,65.36
2023-03-06T10:04:48.026Z,65.41
2023-03-06T10:09:47.499Z,65.24
2023-03-06T10:14:48.471Z,65.20
2023-03-06T10:19:43.300Z,65.18
2023-03-06T10:24:56.000Z,65.49
2023-03-06T10:30:07.581Z,65.73
2023-03-06T10:35:05.393Z,65.55
2023-03-06T10:40:10.275Z,65.47
2023-03-06T10:45:09.564Z,65.23
2023-03-06T10:50:05.642Z,65.80
2023-03-06T10:55:23.947Z,66.08
2023-03-06T11:00:37.023Z,66.76
2023-03-06T11:05:29.798Z,67.15
2023-03-06T11:10:24.004Z,67.29
2023-03-06T11:15:19.035Z,67.37
2023-03-06T11:20:20.799Z,66.85
2023-03-06T11:25:17.889Z,67.39
2023-03-06T11:30:20.158Z,67.77
2023-03-06T11:35:25.791Z,68.45
2023-03-06T11:40:33.114Z,68.76
2023-03-06T11:45:37.293Z,68.66
2023-03-06T11:50:39.004Z,68.99
2023-03-06T11:55:31.576Z,69.36
2023-03-06T12:00:40.084Z,69.33
2023-03-06T12:05:50.435Z,68.89
2023-03-06T12:10:53.601Z,68.87
2023-03-06T12:16:04.929Z,69.40
2023-03-06T12:21:39.453Z,69.33
2023-03-06T12:26:51.001Z,69.26
2023-03-06T12:32:06.425Z,69.36
2023-03-06T12:37:17.292Z,70.09
2023-03-06T12:42:35.556Z,70.61
2023-03-06T12:47:29.273Z,70.97
2023-03-06T12:52:32.527Z,71.55
2023-03-06T12:57:26.660Z,71.65
2023-03-06T13:02:44.008Z,71.75
2023-03-06T13:08:14.490Z,72.24
2023-03-06T13:13:32.621Z,72.28
2023-03-06T13:18:25.229Z,72.47
2023-03-06T13:23:30.125Z,72.90
2023-03-06T13:28:40.230Z,72.78
2023-03-06T13:33:33.216Z,73.09
2023-03-06T13:39:11.150Z,73.33
2023-03-06T13:44:28.253Z,73.46
2023-03-06T13:49:25.776Z,73.71
2023-03-06T13:54:37.158Z,74.09
2023-03-06T13:59:59.629Z,74.19
2023-03-06T14:05:00.911Z,74.69
2023-03-06T14:10:15.677Z,74.86
2023-03-06T14:15:32.815Z,74.92
2023-03-06T14:20:34.568Z,75.04
2023-03-06T14:25:32.916Z,75.32
2023-03-06T14:30:27.105Z,75.44
2023-03-06T14:35:26.719Z,75.50
2023-03-06T14:40:31.447Z,75.72
2023-03-06T14:45:25.171Z,75.67
2023-03-06T14:50:30.319Z,75.96
2023-03-06T14:55:25.654Z,75.93
2023-03-06T15:00:22.508Z,76.20
2023-03-06T15:05:28.420Z,76.14
2023-03-06T15:10:30.984Z,76.48
2023-03-06T15:15:30.256Z,76.31
2023-03-06T15:20:42.459Z,76.87
2023-03-06T15:25:36.056Z,77.00
2023-03-06T15:30:31.024Z,76.94
2023-03-06T15:35:30.280Z,77.40
2023-03-06T15:40:25.519Z,77.61
2023-03-06T15:45:21.899Z,77.55
2023-03-06T15:50:20.922Z,77.79
2023-03-06T15:55:15.019Z,78.34
2023-03-06T16:00:26.453Z,78.16
2023-03-06T16:05:20.924Z,78.54
2023-03-06T16:10:15.714Z,78.57
2023-03-06T16:15:20.099Z,78.87
2023-03-06T16:20:23.821Z,78.99
2023-03-06T16:25:18.444Z,79.12
2023-03-06T16:30:20.853Z,79.14
2023-03-06T16:35:14.877Z,79.28
2023-03-06T16:40:19.324Z,79.42
2023-03-06T16:45:12.548Z,79.30
2023-03-06T16:50:05.941Z,79.30
2023-03-06T16:54:58.557Z,79.57
2023-03-06T16:59:52.304Z,79.50
2023-03-06T17:04:45.315Z,79.51
2023-03-06T17:09:38.007Z,79.68
2023-03-06T17:14:30.976Z,79.78
2023-03-06T17:19:23.647Z,79.97
2023-03-06T17:24:16.830Z,79.96
2023-03-06T17:29:12.157Z,79.93
2023-03-06T17:34:50.096Z,80.25
2023-03-06T17:39:49.917Z,80.30
2023-03-06T17:44:43.000Z,80.53
2023-03-06T17:49:35.795Z,80.36
2023-03-06T17:54:30.247Z,80.57
2023-03-06T17:59:22.986Z,80.49
2023-03-06T18:04:16.974Z,80.71
2023-03-06T18:09:10.292Z,80.72
2023-03-06T18:14:05.376Z,80.84
2023-03-06T18:18:58.578Z,80.80
2023-03-06T18:23:51.901Z,80.50
2023-03-06T18:28:47.439Z,80.81
2023-03-06T18:33:40.095Z,80.81
2023-03-06T18:38:33.521Z,80.97
2023-03-06T18:43:26.256Z,80.86
2023-03-06T18:48:18.983Z,81.05
2023-03-06T18:53:11.774Z,80.92
2023-03-06T18:58:04.529Z,80.88
2023-03-06T19:02:57.233Z,81.47
2023-03-06T19:07:49.972Z,81.24
2023-03-06T19:12:42.780Z,81.33
2023-03-06T19:17:37.715Z,81.37
2023-03-06T19:22:31.610Z,81.54
2023-03-06T19:27:24.308Z,81.36
2023-03-06T19:32:17.188Z,81.33
2023-03-06T19:37:10.073Z,81.63
2023-03-06T19:42:04.714Z,81.59
2023-03-06T19:46:57.693Z,81.73
2023-03-06T19:51:50.450Z,81.78
2023-03-06T19:56:43.390Z,81.76
2023-03-06T20:01:36.232Z,81.62
2023-03-06T20:06:33.603Z,81.57
2023-03-06T20:11:29.904Z,81.55
2023-03-06T20:16:30.202Z,81.79
2023-03-06T20:21:23.383Z,81.93
2023-03-06T20:26:17.172Z,81.49
2023-03-06T20:31:19.571Z,81.77
2023-03-06T20:36:40.517Z,81.46
2023-03-06T20:41:33.966Z,81.62
2023-03-06T20:47:21.875Z,81.83
2023-03-06T20:53:14.029Z,81.71
2023-03-06T20:58:42.452Z,81.71
2023-03-06T21:03:35.893Z,81.44
2023-03-06T21:08:28.963Z,81.52
2023-03-06T21:18:55.216Z,81.46
2023-03-06T21:23:49.580Z,81.43
2023-03-06T21:28:42.816Z,81.66
2023-03-06T21:33:35.697Z,81.30
2023-03-06T21:38:29.238Z,81.54
2023-03-06T21:43:22.004Z,81.67
2023-03-06T21:48:16.274Z,81.71
2023-03-06T21:53:10.089Z,81.76
2023-03-06T21:58:02.828Z,81.63
2023-03-06T22:02:55.610Z,81.55
2023-03-06T22:07:48.535Z,81.57
2023-03-06T22:12:42.063Z,81.81
2023-03-06T22:17:34.820Z,81.99
2023-03-06T22:22:27.867Z,81.97
2023-03-06T22:27:20.605Z,81.96
2023-03-06T22:32:13.445Z,81.81
2023-03-06T22:37:06.189Z,81.68
2023-03-06T22:41:59.186Z,82.00
2023-03-06T22:46:52.215Z,82.08
2023-03-06T22:51:44.888Z,82.22
2023-03-06T22:56:37.850Z,82.15
2023-03-06T23:01:33.818Z,82.01
2023-03-06T23:06:31.942Z,82.00
2023-03-06T23:11:25.679Z,81.90
2023-03-06T23:16:38.521Z,82.01
2023-03-06T23:21:49.963Z,82.30
2023-03-06T23:27:02.585Z,82.10
2023-03-06T23:31:55.261Z,82.20
2023-03-06T23:36:50.611Z,81.89
2023-03-06T23:41:44.558Z,82.07
2023-03-06T23:46:37.808Z,81.68
2023-03-06T23:51:30.538Z,81.14
2023-03-06T23:56:24.238Z,81.18
